Time;durP1;ratioP1;P1;durP2;ratioP2;P2;SDS_P1;SDS_P2;PMS_P1;PMS_P2;Temp;Humidity;BMP_temperature;BMP_pressure;BME280_temperature;BME280_humidity;BME280_pressure;Samples;Min_cycle;Max_cycle;Signal;HPM_P1;HPM_P2
2021/05/09 00:00:40;;;;;;;2.37;1.90;;;11.20;99.90;;;;;;5030456;28;20163;-75
2021/05/09 00:03:05;;;;;;;2.10;1.83;;;11.00;99.90;;;;;;5013599;28;20303;-75
2021/05/09 00:05:31;;;;;;;4.93;1.83;;;10.90;99.90;;;;;;5014164;28;20257;-75
2021/05/09 00:07:57;;;;;;;2.20;1.90;;;10.90;99.90;;;;;;4997741;28;20264;-75
2021/05/09 00:10:22;;;;;;;2.60;1.80;;;10.80;99.90;;;;;;5000273;28;20222;-75
2021/05/09 00:12:48;;;;;;;3.13;1.80;;;10.70;99.90;;;;;;5018158;28;20291;-75
2021/05/09 00:15:14;;;;;;;3.67;2.07;;;10.70;99.90;;;;;;5035694;28;20170;-75
2021/05/09 00:17:39;;;;;;;4.63;2.10;;;10.50;99.90;;;;;;5034458;28;20210;-75
2021/05/09 00:20:06;;;;;;;2.63;2.10;;;10.60;99.90;;;;;;5001246;28;20217;-75
2021/05/09 00:22:32;;;;;;;2.77;1.97;;;10.40;99.90;;;;;;5017937;28;20603;-75
2021/05/09 00:24:57;;;;;;;3.10;2.00;;;10.40;99.90;;;;;;5017789;28;20234;-76
2021/05/09 00:27:23;;;;;;;2.43;2.20;;;10.40;99.90;;;;;;5017727;28;20316;-76
2021/05/09 00:29:48;;;;;;;2.07;1.70;;;10.30;99.90;;;;;;5017525;28;20289;-76
2021/05/09 00:32:14;;;;;;;3.90;2.10;;;10.30;99.90;;;;;;5033979;28;20211;-75
2021/05/09 00:34:39;;;;;;;2.97;2.00;;;10.30;99.90;;;;;;5001192;28;20208;-75
2021/05/09 00:37:05;;;;;;;3.33;2.23;;;10.40;99.90;;;;;;5034156;28;20172;-75
2021/05/09 00:39:30;;;;;;;3.17;2.20;;;10.50;99.90;;;;;;5017221;28;20189;-75
2021/05/09 00:42:03;;;;;;;2.77;2.13;;;10.60;99.90;;;;;;5033954;28;20186;-76
2021/05/09 00:44:29;;;;;;;3.70;2.37;;;10.60;99.90;;;;;;5034281;28;20202;-75
2021/05/09 00:46:54;;;;;;;3.23;2.33;;;10.60;99.90;;;;;;5017383;28;20186;-75
2021/05/09 00:49:20;;;;;;;3.17;2.33;;;10.50;99.90;;;;;;5033743;28;20205;-76
2021/05/09 00:51:49;;;;;;;4.73;2.17;;;10.40;99.90;;;;;;5000902;28;20182;-76
2021/05/09 00:54:19;;;;;;;3.00;2.03;;;10.30;99.90;;;;;;5017279;28;20231;-76
2021/05/09 00:56:46;;;;;;;2.60;2.13;;;10.20;99.90;;;;;;5017422;28;20515;-76
2021/05/09 00:59:11;;;;;;;3.10;2.40;;;10.10;99.90;;;;;;5017401;28;20311;-76
2021/05/09 01:01:37;;;;;;;3.10;2.60;;;10.00;99.90;;;;;;5017260;28;20600;-75
2021/05/09 01:04:03;;;;;;;2.37;2.10;;;10.00;99.90;;;;;;5016764;28;20221;-75
2021/05/09 01:06:29;;;;;;;2.50;2.00;;;9.90;99.90;;;;;;5017214;28;20222;-75
2021/05/09 01:08:55;;;;;;;3.43;2.30;;;9.90;99.90;;;;;;5016778;28;20201;-76
2021/05/09 01:11:21;;;;;;;6.10;2.50;;;10.00;99.90;;;;;;5017213;28;20652;-76
2021/05/09 01:13:46;;;;;;;3.40;2.53;;;10.00;99.90;;;;;;5000580;28;20190;-76
2021/05/09 01:16:12;;;;;;;3.17;2.30;;;10.20;99.90;;;;;;5017148;28;20638;-76
2021/05/09 01:18:38;;;;;;;6.33;2.30;;;10.20;99.90;;;;;;5034311;28;20288;-76
2021/05/09 01:21:03;;;;;;;4.53;2.40;;;10.20;99.90;;;;;;5033145;28;20636;-76
2021/05/09 01:23:29;;;;;;;4.50;2.47;;;10.20;99.90;;;;;;5033105;28;20230;-76
2021/05/09 01:25:54;;;;;;;4.00;2.37;;;10.30;99.90;;;;;;5016766;28;20664;-76
2021/05/09 01:28:20;;;;;;;2.73;2.10;;;10.30;99.90;;;;;;5000340;28;20178;-76
2021/05/09 01:30:45;;;;;;;4.97;2.63;;;10.20;99.90;;;;;;5016615;28;20178;-76
2021/05/09 01:33:11;;;;;;;3.40;2.43;;;10.20;99.90;;;;;;5016590;28;20198;-75
2021/05/09 01:35:36;;;;;;;3.03;2.30;;;10.20;99.90;;;;;;5032967;28;20276;-75
2021/05/09 01:38:03;;;;;;;4.67;2.60;;;10.20;99.90;;;;;;5032964;28;20208;-76
2021/05/09 01:40:28;;;;;;;2.37;2.13;;;10.20;99.90;;;;;;4999948;28;20185;-76
2021/05/09 01:42:54;;;;;;;2.80;2.17;;;10.10;99.90;;;;;;5034135;28;20238;-76
2021/05/09 01:45:20;;;;;;;3.90;2.53;;;10.10;99.90;;;;;;4999972;28;20213;-76
2021/05/09 01:47:45;;;;;;;3.53;2.80;;;10.00;99.90;;;;;;5032987;28;20212;-76
2021/05/09 01:50:17;;;;;;;3.37;2.53;;;9.90;99.90;;;;;;5015697;28;20210;-76
2021/05/09 01:52:43;;;;;;;3.70;2.60;;;9.90;99.90;;;;;;5016325;28;20208;-76
2021/05/09 01:55:11;;;;;;;2.67;2.40;;;9.90;99.90;;;;;;5000231;28;20638;-76
2021/05/09 01:57:36;;;;;;;3.50;2.77;;;9.90;99.90;;;;;;5000066;28;20189;-76
2021/05/09 02:00:12;;;;;;;3.63;2.67;;;10.00;99.90;;;;;;5032208;28;20182;-76
2021/05/09 02:02:37;;;;;;;5.13;3.13;;;10.00;99.90;;;;;;5000427;28;20184;-76
2021/05/09 02:05:04;;;;;;;3.10;2.77;;;10.00;99.90;;;;;;4999515;28;20750;-77
2021/05/09 02:07:30;;;;;;;3.90;2.87;;;10.40;99.90;;;;;;4999785;28;20180;-76
2021/05/09 02:09:56;;;;;;;5.53;2.90;;;10.50;99.90;;;;;;4999180;28;20207;-76
2021/05/09 02:12:21;;;;;;;4.10;2.70;;;10.60;99.90;;;;;;4999656;28;20180;-77
2021/05/09 02:14:47;;;;;;;4.13;2.60;;;10.60;99.90;;;;;;4999479;28;20206;-76
2021/05/09 02:17:12;;;;;;;4.57;2.80;;;10.50;99.90;;;;;;5015857;28;20179;-76
2021/05/09 02:19:38;;;;;;;3.23;2.93;;;10.60;99.90;;;;;;5015404;28;20186;-76
2021/05/09 02:22:03;;;;;;;3.53;2.70;;;10.40;99.90;;;;;;5032025;28;20177;-76
2021/05/09 02:24:29;;;;;;;3.20;2.57;;;10.40;99.90;;;;;;5015664;28;20220;-76
2021/05/09 02:26:54;;;;;;;3.53;2.70;;;10.40;99.90;;;;;;5015661;28;20201;-76
2021/05/09 02:29:20;;;;;;;4.30;2.70;;;10.40;99.90;;;;;;5015466;28;20231;-76
2021/05/09 02:31:46;;;;;;;3.43;2.40;;;10.30;99.90;;;;;;5015339;28;20194;-76
2021/05/09 02:34:11;;;;;;;4.17;2.80;;;10.40;99.90;;;;;;5032687;28;20268;-76
2021/05/09 02:36:37;;;;;;;3.00;2.70;;;10.30;99.90;;;;;;4999350;28;20192;-76
2021/05/09 02:39:03;;;;;;;4.03;2.60;;;10.30;99.90;;;;;;4998941;28;20185;-75
2021/05/09 02:41:28;;;;;;;4.60;2.50;;;10.20;99.90;;;;;;4999064;28;20207;-75
2021/05/09 02:43:54;;;;;;;3.50;2.40;;;10.10;99.90;;;;;;5014996;28;20209;-75
2021/05/09 02:46:19;;;;;;;2.30;2.10;;;10.00;99.90;;;;;;5015301;28;20184;-76
2021/05/09 02:48:45;;;;;;;2.77;2.47;;;10.10;99.90;;;;;;5014901;28;20222;-76
2021/05/09 02:51:10;;;;;;;2.83;2.40;;;10.00;99.90;;;;;;5031753;28;20181;-76
2021/05/09 02:53:36;;;;;;;3.70;2.43;;;10.10;99.90;;;;;;5015090;28;20264;-76
2021/05/09 02:56:01;;;;;;;3.93;2.40;;;10.10;99.90;;;;;;5015052;28;20188;-76
2021/05/09 02:58:27;;;;;;;3.80;2.60;;;10.00;99.90;;;;;;5014177;28;20180;-76
2021/05/09 03:00:52;;;;;;;3.73;2.40;;;10.10;99.90;;;;;;5031391;28;20689;-75
2021/05/09 03:03:18;;;;;;;3.10;2.17;;;10.00;99.90;;;;;;4998268;28;20715;-76
2021/05/09 03:05:44;;;;;;;4.33;2.50;;;10.00;99.90;;;;;;5015014;28;20593;-76
2021/05/09 03:08:09;;;;;;;3.87;2.20;;;9.90;99.90;;;;;;5014843;28;20180;-76
2021/05/09 03:10:35;;;;;;;2.47;2.13;;;9.90;99.90;;;;;;5030902;28;20184;-76
2021/05/09 03:13:00;;;;;;;2.40;2.20;;;10.00;99.90;;;;;;5014754;28;20199;-76
2021/05/09 03:15:26;;;;;;;4.13;2.23;;;9.90;99.90;;;;;;4998463;28;20177;-76
2021/05/09 03:17:52;;;;;;;2.50;2.30;;;9.90;99.90;;;;;;5031063;28;20256;-76
2021/05/09 03:20:17;;;;;;;2.93;2.30;;;9.80;99.90;;;;;;5014528;28;20180;-76
2021/05/09 03:22:43;;;;;;;2.77;2.47;;;9.70;99.90;;;;;;5014328;28;20193;-76
2021/05/09 03:25:08;;;;;;;3.70;2.30;;;9.70;99.90;;;;;;5031056;28;20545;-76
2021/05/09 03:27:34;;;;;;;2.40;2.20;;;9.60;99.90;;;;;;5031155;28;20776;-76
2021/05/09 03:29:59;;;;;;;3.43;2.37;;;9.50;99.90;;;;;;5030839;28;20205;-76
2021/05/09 03:32:25;;;;;;;2.70;2.40;;;9.50;99.90;;;;;;5030678;28;20177;-76
2021/05/09 03:34:51;;;;;;;2.97;2.13;;;9.50;99.90;;;;;;5014381;28;20200;-76
2021/05/09 03:37:16;;;;;;;3.10;2.50;;;9.50;99.90;;;;;;5014157;28;20173;-76
2021/05/09 03:39:42;;;;;;;2.43;2.10;;;9.40;99.90;;;;;;5014283;28;20201;-76
2021/05/09 03:42:07;;;;;;;3.30;2.57;;;9.30;99.90;;;;;;5030765;28;20253;-76
2021/05/09 03:44:34;;;;;;;2.87;2.37;;;9.20;99.90;;;;;;5013823;28;20197;-76
2021/05/09 03:46:59;;;;;;;2.70;2.37;;;9.20;99.90;;;;;;4998416;28;20185;-77
2021/05/09 03:49:25;;;;;;;2.70;2.23;;;9.10;99.90;;;;;;5013998;28;20208;-76
2021/05/09 03:51:50;;;;;;;2.80;2.40;;;9.00;99.90;;;;;;5030716;28;20200;-76
2021/05/09 03:54:16;;;;;;;2.73;2.30;;;9.00;99.90;;;;;;5031925;28;20207;-76
2021/05/09 03:56:41;;;;;;;3.33;2.50;;;8.90;99.90;;;;;;5014103;28;20186;-77
2021/05/09 03:59:07;;;;;;;3.27;2.47;;;8.90;99.90;;;;;;5030586;28;20192;-76
2021/05/09 04:01:32;;;;;;;2.87;2.30;;;8.90;99.90;;;;;;4997958;28;20189;-76
2021/05/09 04:03:58;;;;;;;2.73;2.27;;;8.80;99.90;;;;;;5100100;22;20297;-77
2021/05/09 04:06:24;;;;;;;2.40;2.20;;;8.80;99.90;;;;;;5038342;28;20239;-77
2021/05/09 04:08:49;;;;;;;3.53;2.77;;;8.80;99.90;;;;;;5054938;28;20291;-77
2021/05/09 04:11:17;;;;;;;2.93;2.47;;;8.80;99.90;;;;;;5071635;28;20259;-77
2021/05/09 04:13:46;;;;;;;2.93;2.63;;;8.70;99.90;;;;;;5055047;28;20303;-78
2021/05/09 04:16:12;;;;;;;3.57;2.50;;;8.70;99.90;;;;;;5054863;28;20187;-78
2021/05/09 04:18:39;;;;;;;3.43;2.73;;;8.80;99.90;;;;;;5037655;28;20542;-78
2021/05/09 04:21:05;;;;;;;4.67;2.63;;;8.80;99.90;;;;;;5039921;28;20180;-78
2021/05/09 04:23:31;;;;;;;3.13;2.70;;;8.80;99.90;;;;;;5075376;28;20181;-78
2021/05/09 04:25:57;;;;;;;6.60;3.20;;;8.90;99.90;;;;;;5058640;28;20190;-78
2021/05/09 04:28:23;;;;;;;3.80;2.97;;;9.10;99.90;;;;;;5058330;28;20173;-78
2021/05/09 04:30:51;;;;;;;3.50;2.90;;;9.30;99.90;;;;;;5074813;28;20195;-79
2021/05/09 04:33:17;;;;;;;4.33;2.50;;;9.40;99.90;;;;;;5043156;28;20241;-78
2021/05/09 04:35:44;;;;;;;3.20;2.70;;;9.70;99.90;;;;;;5058285;28;20199;-78
2021/05/09 04:38:10;;;;;;;5.73;3.10;;;9.80;99.90;;;;;;5042086;28;20217;-78
2021/05/09 04:40:36;;;;;;;5.23;3.00;;;9.90;99.90;;;;;;5055934;28;20224;-78
2021/05/09 04:43:12;;;;;;;5.77;3.03;;;10.00;99.90;;;;;;5071188;28;20176;-78
2021/05/09 04:45:38;;;;;;;3.13;2.77;;;10.00;99.90;;;;;;5037973;28;20208;-78
2021/05/09 04:48:05;;;;;;;5.13;2.60;;;10.30;99.90;;;;;;5037644;28;20180;-78
2021/05/09 04:50:31;;;;;;;3.83;2.40;;;10.60;99.90;;;;;;5037041;28;20216;-79
2021/05/09 04:52:56;;;;;;;3.37;2.50;;;10.80;99.90;;;;;;5053908;28;20237;-78
2021/05/09 04:55:22;;;;;;;3.17;2.60;;;10.90;99.90;;;;;;5038847;28;20195;-78
2021/05/09 04:57:48;;;;;;;5.63;2.60;;;11.10;99.90;;;;;;5057784;28;20169;-78
2021/05/09 05:00:15;;;;;;;3.00;2.50;;;11.30;99.90;;;;;;5041221;28;20180;-78
2021/05/09 05:02:44;;;;;;;3.70;2.27;;;11.40;99.90;;;;;;5041259;28;20275;-78
2021/05/09 05:05:11;;;;;;;2.60;2.20;;;11.60;99.90;;;;;;5041054;28;20219;-78
2021/05/09 05:07:37;;;;;;;5.37;2.53;;;11.70;99.90;;;;;;5057642;28;20658;-79
2021/05/09 05:10:04;;;;;;;2.40;2.20;;;11.80;99.90;;;;;;5040770;28;20204;-78
2021/05/09 05:12:30;;;;;;;2.43;2.20;;;11.90;99.90;;;;;;5074020;28;20676;-77
2021/05/09 05:14:56;;;;;;;2.40;1.97;;;12.00;99.90;;;;;;5057719;28;20192;-78
2021/05/09 05:17:23;;;;;;;4.77;2.27;;;12.00;99.90;;;;;;5040998;28;20179;-78
2021/05/09 05:19:49;;;;;;;2.60;2.30;;;12.10;99.90;;;;;;5057429;28;20607;-78
2021/05/09 05:22:16;;;;;;;4.57;2.27;;;12.30;99.90;;;;;;5057290;28;20177;-77
2021/05/09 05:24:41;;;;;;;3.07;2.40;;;12.50;99.90;;;;;;5041245;28;20698;-77
2021/05/09 05:27:08;;;;;;;3.90;2.60;;;12.70;99.90;;;;;;5057178;28;20177;-78
2021/05/09 05:29:34;;;;;;;3.00;2.13;;;12.80;99.90;;;;;;5040605;28;20277;-79
2021/05/09 05:32:00;;;;;;;3.80;2.27;;;13.00;99.90;;;;;;5040727;28;20641;-77
2021/05/09 05:34:26;;;;;;;5.30;2.23;;;13.10;99.90;;;;;;5040299;28;20577;-79
2021/05/09 05:36:52;;;;;;;3.10;2.17;;;13.40;99.90;;;;;;5057159;28;20174;-77
2021/05/09 05:39:19;;;;;;;2.63;1.80;;;13.50;99.90;;;;;;5040673;28;20185;-78
2021/05/09 05:41:46;;;;;;;2.80;2.00;;;13.80;99.90;;;;;;5057523;28;20197;-78
2021/05/09 05:44:11;;;;;;;4.20;2.13;;;14.10;99.90;;;;;;5040955;28;20259;-78
2021/05/09 05:46:37;;;;;;;2.83;1.87;;;14.40;99.90;;;;;;5041365;28;20178;-78
2021/05/09 05:49:04;;;;;;;4.40;2.03;;;14.60;99.90;;;;;;5058582;28;20205;-78
2021/05/09 05:51:31;;;;;;;2.40;1.70;;;14.90;99.90;;;;;;5042517;28;20337;-78
2021/05/09 05:53:57;;;;;;;2.50;2.30;;;15.30;99.90;;;;;;5041075;28;20205;-79
2021/05/09 05:56:26;;;;;;;2.80;1.97;;;15.90;99.90;;;;;;5040893;28;20178;-79
2021/05/09 05:58:52;;;;;;;2.00;1.70;;;16.60;99.90;;;;;;5041242;28;20277;-77
2021/05/09 06:01:19;;;;;;;3.13;1.40;;;16.90;99.90;;;;;;5057876;28;20197;-77
2021/05/09 06:03:46;;;;;;;2.03;1.60;;;17.10;99.90;;;;;;5041262;28;20185;-78
2021/05/09 06:06:11;;;;;;;2.60;1.60;;;17.00;99.90;;;;;;5041680;28;20185;-79
2021/05/09 06:08:39;;;;;;;2.10;1.70;;;16.80;99.90;;;;;;5057303;28;20300;-78
2021/05/09 06:11:04;;;;;;;2.33;1.70;;;16.50;99.90;;;;;;5041493;28;20241;-77
2021/05/09 06:13:31;;;;;;;3.33;1.83;;;16.40;99.90;;;;;;5058094;28;20671;-77
2021/05/09 06:15:56;;;;;;;4.43;1.70;;;16.40;99.90;;;;;;5041023;28;20198;-78
2021/05/09 06:18:22;;;;;;;3.13;1.60;;;16.40;99.90;;;;;;5040749;28;20181;-78
2021/05/09 06:20:48;;;;;;;3.83;1.80;;;16.30;99.90;;;;;;5039365;28;20608;-78
2021/05/09 06:23:18;;;;;;;2.83;1.80;;;16.30;99.90;;;;;;5049541;28;20220;-78
2021/05/09 06:25:44;;;;;;;2.87;1.70;;;16.50;99.90;;;;;;5044358;28;20206;-79
2021/05/09 06:28:11;;;;;;;2.90;1.50;;;16.70;99.90;;;;;;5035697;28;20175;-78
2021/05/09 06:30:37;;;;;;;2.57;1.70;;;16.90;99.90;;;;;;5037069;28;20681;-78
2021/05/09 06:33:03;;;;;;;3.53;1.90;;;17.10;99.90;;;;;;5037214;28;20547;-81
2021/05/09 06:35:29;;;;;;;2.50;1.70;;;17.00;99.90;;;;;;5019704;28;20666;-77
2021/05/09 06:37:55;;;;;;;3.90;1.73;;;17.30;99.90;;;;;;5036459;28;20170;-78
2021/05/09 06:40:21;;;;;;;2.20;1.60;;;17.50;99.90;;;;;;5018884;28;20755;-78
2021/05/09 06:42:57;;;;;;;3.87;1.80;;;17.70;99.90;;;;;;5024872;28;20211;-78
2021/05/09 06:45:26;;;;;;;1.83;1.23;;;18.00;99.90;;;;;;5011003;28;20196;-78
2021/05/09 06:47:51;;;;;;;2.90;1.40;;;17.90;99.90;;;;;;5011117;28;20179;-78
2021/05/09 06:50:17;;;;;;;2.13;1.57;;;18.10;99.90;;;;;;5027031;28;20221;-78
2021/05/09 06:52:43;;;;;;;2.90;1.70;;;18.50;99.90;;;;;;5045378;28;20182;-79
2021/05/09 06:55:10;;;;;;;1.87;1.50;;;18.90;99.90;;;;;;5049415;28;20190;-78
2021/05/09 06:57:37;;;;;;;4.23;1.70;;;19.20;99.90;;;;;;5016795;28;20262;-79
2021/05/09 07:00:04;;;;;;;1.80;1.33;;;19.70;99.90;;;;;;5013598;28;20179;-79
2021/05/09 07:02:30;;;;;;;2.43;1.40;;;19.70;99.90;;;;;;5015632;28;20190;-79
2021/05/09 07:04:57;;;;;;;1.50;1.30;;;19.80;99.90;;;;;;5031976;28;20217;-79
2021/05/09 07:07:22;;;;;;;2.73;1.60;;;19.90;99.90;;;;;;5017001;28;20190;-78
2021/05/09 07:09:49;;;;;;;4.03;1.30;;;19.90;99.90;;;;;;5031119;28;20198;-78
2021/05/09 07:12:15;;;;;;;2.67;1.23;;;19.90;99.90;;;;;;5014239;28;20175;-77
2021/05/09 07:14:42;;;;;;;1.37;1.17;;;19.80;99.90;;;;;;5037817;28;20197;-78
2021/05/09 07:17:09;;;;;;;2.67;1.23;;;19.80;99.90;;;;;;5020208;28;20177;-79
2021/05/09 07:19:35;;;;;;;2.63;1.40;;;19.90;99.90;;;;;;5031812;28;20175;-82
2021/05/09 07:22:04;;;;;;;3.30;1.70;;;20.20;99.90;;;;;;5027647;28;20274;-79
2021/05/09 07:24:30;;;;;;;2.87;1.30;;;20.80;99.90;;;;;;5039614;28;20610;-78
2021/05/09 07:26:55;;;;;;;2.20;1.50;;;20.90;99.90;;;;;;5025532;28;20190;-80
2021/05/09 07:29:22;;;;;;;2.23;1.37;;;20.90;99.90;;;;;;5024429;28;20187;-79
2021/05/09 07:31:49;;;;;;;1.90;1.30;;;21.00;99.90;;;;;;5028557;28;20178;-79
2021/05/09 07:34:15;;;;;;;3.23;1.30;;;21.30;99.90;;;;;;5017064;28;20220;-79
2021/05/09 07:36:40;;;;;;;2.70;1.23;;;21.90;99.90;;;;;;5038315;28;20640;-80
2021/05/09 07:39:06;;;;;;;1.30;1.20;;;22.20;99.90;;;;;;5030279;28;20179;-81
2021/05/09 07:41:33;;;;;;;1.77;1.20;;;22.30;99.90;;;;;;5030300;28;20186;-80
2021/05/09 07:43:59;;;;;;;2.57;1.30;;;21.70;99.90;;;;;;5017396;28;20239;-79
2021/05/09 07:46:25;;;;;;;2.97;2.43;;;21.10;99.90;;;;;;5025082;28;20190;-80
2021/05/09 07:48:50;;;;;;;1.93;1.40;;;21.10;99.90;;;;;;5025980;28;20261;-80
2021/05/09 07:51:16;;;;;;;1.90;1.17;;;21.10;99.90;;;;;;5020399;28;20600;-80
2021/05/09 07:53:42;;;;;;;1.20;1.00;;;21.30;99.90;;;;;;5039829;28;20192;-79
2021/05/09 07:56:09;;;;;;;2.23;0.90;;;21.70;99.90;;;;;;5025476;28;20655;-80
2021/05/09 07:58:35;;;;;;;1.73;1.07;;;21.80;99.90;;;;;;5021342;28;20170;-77
2021/05/09 08:01:02;;;;;;;2.10;0.90;;;21.90;99.90;;;;;;5021050;28;20181;-77
2021/05/09 08:03:28;;;;;;;3.43;0.97;;;22.30;99.90;;;;;;5019490;28;20276;-78
2021/05/09 08:05:54;;;;;;;1.27;0.87;;;22.30;99.90;;;;;;5035885;28;20316;-77
2021/05/09 08:08:21;;;;;;;1.60;1.00;;;22.20;99.90;;;;;;5052563;28;20182;-78
2021/05/09 08:10:47;;;;;;;2.07;1.00;;;21.90;99.90;;;;;;5035547;28;20235;-78
2021/05/09 08:13:12;;;;;;;1.53;0.90;;;21.80;99.90;;;;;;5038876;28;20178;-78
2021/05/09 08:15:38;;;;;;;2.20;1.10;;;21.90;99.90;;;;;;5021552;28;20194;-79
2021/05/09 08:18:06;;;;;;;2.43;1.10;;;22.20;99.90;;;;;;5020286;28;20218;-80
2021/05/09 08:20:31;;;;;;;1.00;0.90;;;22.40;99.90;;;;;;5001936;28;20198;-79
2021/05/09 08:22:59;;;;;;;1.83;1.00;;;22.60;99.90;;;;;;5002892;28;20175;-83
2021/05/09 08:25:26;;;;;;;3.53;0.90;;;22.50;99.90;;;;;;5001803;28;20195;-78
2021/05/09 08:27:54;;;;;;;3.37;1.00;;;22.50;99.90;;;;;;5017688;28;20186;-78
2021/05/09 08:30:21;;;;;;;3.07;1.13;;;22.50;99.90;;;;;;5019709;28;20194;-79
2021/05/09 08:32:47;;;;;;;3.17;1.00;;;22.70;99.90;;;;;;5024952;28;20214;-77
2021/05/09 08:35:13;;;;;;;2.00;0.90;;;23.00;99.90;;;;;;5041324;28;20240;-78
2021/05/09 08:37:39;;;;;;;1.37;0.90;;;22.90;99.90;;;;;;5030360;28;20177;-78
2021/05/09 08:40:09;;;;;;;1.90;0.80;;;23.10;99.90;;;;;;5044312;28;20265;-79
2021/05/09 08:42:35;;;;;;;1.73;0.77;;;23.20;99.90;;;;;;5045106;28;20570;-79
2021/05/09 08:45:00;;;;;;;0.70;0.70;;;23.40;99.90;;;;;;5025768;28;20371;-78
2021/05/09 08:47:42;;;;;;;1.60;1.00;;;23.40;99.90;;;;;;5042391;28;20554;-80
2021/05/09 08:50:12;;;;;;;3.37;1.00;;;23.60;99.90;;;;;;5029740;28;20229;-79
2021/05/09 08:52:39;;;;;;;1.20;0.70;;;23.60;99.90;;;;;;5027117;28;20229;-79
2021/05/09 08:55:06;;;;;;;1.10;0.80;;;23.80;99.90;;;;;;5042150;28;20194;-77
2021/05/09 08:57:32;;;;;;;2.77;0.90;;;23.70;99.90;;;;;;5026188;28;20625;-79
2021/05/09 08:59:57;;;;;;;2.50;0.70;;;24.00;99.90;;;;;;5042923;28;20185;-78
2021/05/09 09:02:24;;;;;;;1.10;0.90;;;24.10;99.90;;;;;;5026190;28;20195;-79
2021/05/09 09:04:51;;;;;;;2.33;0.70;;;23.90;98.90;;;;;;5024417;28;20267;-79
2021/05/09 09:07:17;;;;;;;2.23;0.80;;;23.90;99.90;;;;;;5040962;28;20621;-79
2021/05/09 09:09:44;;;;;;;1.63;0.80;;;24.10;99.70;;;;;;5023886;28;20216;-80
2021/05/09 09:12:10;;;;;;;1.83;1.00;;;24.00;99.60;;;;;;5023925;28;20182;-80
2021/05/09 09:14:50;;;;;;;1.73;1.00;;;24.00;99.50;;;;;;5041063;28;20194;-78
2021/05/09 09:17:17;;;;;;;1.87;0.90;;;24.40;99.80;;;;;;5044656;28;20174;-77
2021/05/09 09:20:06;;;;;;;1.60;0.90;;;24.70;99.10;;;;;;5025151;28;20211;-79
2021/05/09 09:22:55;;;;;;;2.93;0.93;;;25.00;98.40;;;;;;5058388;28;20185;-79
2021/05/09 09:25:31;;;;;;;3.03;0.97;;;25.20;98.90;;;;;;5044508;28;20273;-81
2021/05/09 09:27:58;;;;;;;1.57;0.90;;;25.10;98.10;;;;;;5026650;28;20210;-81
2021/05/09 09:30:25;;;;;;;0.93;0.70;;;25.20;97.10;;;;;;5030540;28;20210;-81
2021/05/09 09:33:10;;;;;;;1.33;0.73;;;25.30;96.20;;;;;;5027590;28;20228;-80
2021/05/09 09:35:36;;;;;;;2.70;1.03;;;25.40;95.80;;;;;;5034848;28;20203;-77
2021/05/09 09:38:19;;;;;;;2.03;0.83;;;25.40;95.30;;;;;;5019638;28;20263;-77
2021/05/09 09:41:10;;;;;;;3.60;0.77;;;25.40;95.40;;;;;;5046875;28;20178;-77
2021/05/09 09:43:36;;;;;;;2.40;0.80;;;25.40;96.40;;;;;;5051974;28;20182;-78
2021/05/09 09:46:03;;;;;;;1.70;1.03;;;25.70;96.30;;;;;;5038775;28;20189;-79
2021/05/09 09:48:39;;;;;;;1.33;1.10;;;26.00;96.10;;;;;;5022923;28;20182;-79
2021/05/09 09:51:05;;;;;;;2.50;0.80;;;26.10;95.80;;;;;;5011733;28;20258;-79
2021/05/09 09:53:42;;;;;;;2.60;1.00;;;26.00;96.60;;;;;;5016269;28;20179;-81
2021/05/09 09:56:08;;;;;;;1.37;1.00;;;26.30;96.80;;;;;;5057900;28;20573;-81
2021/05/09 09:58:45;;;;;;;1.33;1.10;;;26.70;96.00;;;;;;5043712;28;20639;-82
2021/05/09 10:01:12;;;;;;;1.83;0.90;;;26.30;95.60;;;;;;5025138;28;20181;-82
2021/05/09 10:03:38;;;;;;;1.13;0.90;;;26.20;95.70;;;;;;5038549;28;20163;-81
2021/05/09 10:06:04;;;;;;;1.77;0.90;;;26.40;95.80;;;;;;5055028;23;20316;-76
2021/05/09 10:08:30;;;;;;;3.40;1.05;;;26.10;96.00;;;;;;5032530;28;20262;-72
2021/05/09 10:10:55;;;;;;;2.20;1.20;;;26.30;96.20;;;;;;5016879;28;20176;-74
2021/05/09 10:13:21;;;;;;;4.83;1.27;;;26.70;95.70;;;;;;5018839;28;20543;-72
2021/05/09 10:15:47;;;;;;;1.73;1.20;;;26.80;96.30;;;;;;5035900;28;20567;-72
2021/05/09 10:18:13;;;;;;;2.03;1.10;;;26.50;95.60;;;;;;5035844;28;20166;-71
2021/05/09 10:20:40;;;;;;;1.80;1.20;;;26.10;95.30;;;;;;5021391;28;20187;-72
2021/05/09 10:23:06;;;;;;;2.17;1.20;;;26.20;95.10;;;;;;5014738;28;20194;-72
2021/05/09 10:25:55;;;;;;;1.43;1.00;;;26.50;95.20;;;;;;5032379;28;20203;-71
2021/05/09 10:28:41;;;;;;;1.40;0.88;;;26.50;94.60;;;;;;5020157;28;20719;-71
2021/05/09 10:31:07;;;;;;;3.73;1.07;;;26.50;94.60;;;;;;5033166;28;20210;-71
2021/05/09 10:33:41;;;;;;;2.00;1.10;;;26.50;94.50;;;;;;5032402;28;20646;-72
2021/05/09 10:36:10;;;;;;;2.33;1.00;;;26.40;95.40;;;;;;5033465;28;20776;-73
2021/05/09 10:39:07;;;;;;;3.27;1.10;;;26.30;95.20;;;;;;5032316;28;20642;-73
2021/05/09 10:41:33;;;;;;;2.17;1.20;;;26.30;95.20;;;;;;5021552;28;20180;-74
2021/05/09 10:43:58;;;;;;;2.17;1.13;;;26.30;95.50;;;;;;4995816;28;20403;-72
2021/05/09 10:46:24;;;;;;;1.10;1.00;;;26.40;96.00;;;;;;5013486;28;20643;-71
2021/05/09 10:49:10;;;;;;;2.47;1.00;;;26.50;95.40;;;;;;5012057;28;20667;-72
2021/05/09 10:51:37;;;;;;;1.83;1.10;;;26.50;95.50;;;;;;5013004;28;20221;-73
2021/05/09 10:54:22;;;;;;;2.03;0.98;;;26.60;95.90;;;;;;5015181;28;20648;-75
2021/05/09 10:56:48;;;;;;;2.23;1.03;;;26.70;95.40;;;;;;4986856;28;20176;-82
2021/05/09 10:59:13;;;;;;;4.25;1.10;;;26.80;96.10;;;;;;5014380;28;20184;-76
2021/05/09 11:01:39;;;;;;;1.83;1.05;;;26.70;95.70;;;;;;5026385;28;20182;-75
2021/05/09 11:04:09;;;;;;;2.55;1.20;;;26.80;96.10;;;;;;5015206;28;20198;-76
2021/05/09 11:06:38;;;;;;;2.65;1.15;;;27.00;95.30;;;;;;5033464;28;20285;-75
2021/05/09 11:09:17;;;;;;;3.17;0.90;;;27.00;95.60;;;;;;5023703;28;20199;-75
2021/05/09 11:11:46;;;;;;;1.35;1.15;;;27.20;95.60;;;;;;5013436;28;20191;-75
2021/05/09 11:14:11;;;;;;;2.50;1.15;;;27.30;95.40;;;;;;5011484;28;20204;-74
2021/05/09 11:16:44;;;;;;;2.72;1.10;;;27.40;95.50;;;;;;5013137;28;20232;-75
2021/05/09 11:19:14;;;;;;;2.55;0.88;;;27.50;96.50;;;;;;5016340;28;20589;-75
2021/05/09 11:21:46;;;;;;;1.70;1.10;;;27.50;95.10;;;;;;5037519;28;20178;-75
2021/05/09 11:24:25;;;;;;;1.73;0.98;;;27.30;95.50;;;;;;5032139;28;20605;-75
2021/05/09 11:26:52;;;;;;;1.83;1.15;;;27.20;96.10;;;;;;5015653;28;20213;-75
2021/05/09 11:29:27;;;;;;;3.72;1.15;;;27.30;96.60;;;;;;5015149;28;20206;-76
2021/05/09 11:31:53;;;;;;;2.80;1.17;;;27.40;97.70;;;;;;5014916;28;20177;-74
2021/05/09 11:34:20;;;;;;;2.22;1.10;;;27.70;97.10;;;;;;5031191;28;20225;-76
2021/05/09 11:36:47;;;;;;;1.33;1.10;;;27.80;96.20;;;;;;5015041;28;20194;-75
2021/05/09 11:39:19;;;;;;;1.73;1.20;;;27.90;95.70;;;;;;5017443;28;20317;-77
2021/05/09 11:41:52;;;;;;;3.42;1.20;;;28.20;96.50;;;;;;5032054;28;20178;-72
2021/05/09 11:44:19;;;;;;;1.88;1.10;;;28.20;96.10;;;;;;4998583;28;20341;-74
2021/05/09 11:46:44;;;;;;;1.20;0.93;;;28.20;95.40;;;;;;5030947;28;20225;-73
2021/05/09 11:49:14;;;;;;;1.70;0.85;;;28.00;95.70;;;;;;5014399;28;20674;-72
2021/05/09 11:52:19;;;;;;;4.20;1.20;;;28.00;96.30;;;;;;5030589;28;20262;-72
2021/05/09 11:54:52;;;;;;;2.80;1.38;;;28.10;95.70;;;;;;5020119;28;20556;-72
2021/05/09 11:57:18;;;;;;;1.67;0.80;;;28.20;95.90;;;;;;5014475;28;20179;-72
2021/05/09 11:59:45;;;;;;;2.22;1.15;;;28.30;95.60;;;;;;5031795;28;20261;-73
2021/05/09 12:02:10;;;;;;;1.42;1.10;;;28.30;94.50;;;;;;5014308;28;20622;-73
2021/05/09 12:04:36;;;;;;;1.55;1.27;;;28.50;96.40;;;;;;5029925;28;20305;-72
2021/05/09 12:07:03;;;;;;;2.45;1.20;;;28.80;96.00;;;;;;5030699;28;20174;-72
2021/05/09 12:09:29;;;;;;;2.25;1.10;;;28.90;94.10;;;;;;5019286;28;20214;-73
2021/05/09 12:11:55;;;;;;;2.30;1.10;;;28.90;92.90;;;;;;5032549;28;20182;-76
2021/05/09 12:14:22;;;;;;;2.92;1.15;;;28.80;92.70;;;;;;5050692;28;20229;-77
2021/05/09 12:16:47;;;;;;;1.80;1.02;;;28.80;92.60;;;;;;5018185;28;20175;-78
2021/05/09 12:19:13;;;;;;;1.40;1.10;;;28.70;93.20;;;;;;5049606;28;20174;-78
2021/05/09 12:21:39;;;;;;;2.08;1.10;;;28.80;92.80;;;;;;5021681;28;20186;-78
2021/05/09 12:24:08;;;;;;;1.92;1.20;;;28.90;93.60;;;;;;5000086;28;20809;-78
2021/05/09 12:26:33;;;;;;;1.17;0.80;;;28.80;92.70;;;;;;4997800;28;20533;-77
2021/05/09 12:29:18;;;;;;;1.83;1.20;;;28.70;91.90;;;;;;5014162;28;20229;-78
2021/05/09 12:31:43;;;;;;;2.28;1.05;;;28.80;91.80;;;;;;5030904;28;20653;-76
2021/05/09 12:34:10;;;;;;;1.35;1.17;;;28.80;91.30;;;;;;4997955;28;20183;-76
2021/05/09 12:36:36;;;;;;;2.35;1.40;;;28.70;91.30;;;;;;4997897;28;20238;-76
2021/05/09 12:39:03;;;;;;;2.15;1.30;;;28.80;91.60;;;;;;5014150;28;20576;-75
2021/05/09 12:41:30;;;;;;;2.75;1.30;;;28.80;90.90;;;;;;5035484;28;20229;-76
2021/05/09 12:43:56;;;;;;;2.38;1.08;;;28.80;91.70;;;;;;5014300;28;20801;-77
2021/05/09 12:46:43;;;;;;;2.33;1.20;;;29.10;91.70;;;;;;5030364;28;20216;-76
2021/05/09 12:49:09;;;;;;;3.20;1.10;;;29.00;91.20;;;;;;5031516;28;20203;-76